createdAt,value
2023-01-07T00:01:51.426Z,84.24
2023-01-07T00:06:54.555Z,83.69
2023-01-07T00:11:56.608Z,84.75
2023-01-07T00:16:58.685Z,84.48
2023-01-07T00:22:00.805Z,83.31
2023-01-07T00:27:02.990Z,83.61
2023-01-07T00:32:05.346Z,83.09
2023-01-07T00:37:26.331Z,83.00
2023-01-07T00:42:47.253Z,83.06
2023-01-07T00:47:53.491Z,83.48
2023-01-07T00:52:56.375Z,83.73
2023-01-07T00:57:58.815Z,82.18
2023-01-07T01:03:01.673Z,82.72
2023-01-07T01:08:04.021Z,82.55
2023-01-07T01:13:06.223Z,82.63
2023-01-07T01:18:08.379Z,82.86
2023-01-07T01:23:10.600Z,81.42
2023-01-07T01:28:12.913Z,82.78
2023-01-07T01:33:15.581Z,82.46
2023-01-07T01:38:18.511Z,80.75
2023-01-07T01:43:30.000Z,80.79
2023-01-07T01:48:34.155Z,80.92
2023-01-07T01:53:36.698Z,81.54
2023-01-07T01:59:00.243Z,81.19
2023-01-07T02:04:10.412Z,81.17
2023-01-07T02:09:13.444Z,81.15
2023-01-07T02:14:44.575Z,79.78
2023-01-07T02:20:34.693Z,79.72
2023-01-07T02:26:05.833Z,81.30
2023-01-07T02:31:22.750Z,81.42
2023-01-07T02:36:39.739Z,80.37
2023-01-07T02:41:56.886Z,81.27
2023-01-07T02:47:17.463Z,81.06
2023-01-07T02:52:28.284Z,79.40
2023-01-07T02:58:07.977Z,81.18
2023-01-07T03:03:13.317Z,80.20
2023-01-07T03:08:29.290Z,81.74
2023-01-07T03:13:43.056Z,79.96
2023-01-07T03:18:56.602Z,80.64
2023-01-07T03:23:58.823Z,80.68
2023-01-07T03:29:02.170Z,80.05
2023-01-07T03:34:09.415Z,78.89
2023-01-07T03:39:12.598Z,79.99
2023-01-07T03:44:15.850Z,79.07
2023-01-07T03:49:18.177Z,80.39
2023-01-07T03:54:21.594Z,80.31
2023-01-07T03:59:23.789Z,79.65
2023-01-07T04:04:26.077Z,80.07
2023-01-07T04:09:28.619Z,79.94
2023-01-07T04:14:31.305Z,79.34
2023-01-07T04:19:34.701Z,80.19
2023-01-07T04:24:37.001Z,78.48
2023-01-07T04:29:39.599Z,78.35
2023-01-07T04:34:42.357Z,79.37
2023-01-07T04:39:45.029Z,79.05
2023-01-07T04:44:48.027Z,78.63
2023-01-07T04:49:50.292Z,78.46
2023-01-07T04:54:53.085Z,79.29
2023-01-07T04:59:55.505Z,80.19
2023-01-07T05:04:57.870Z,78.72
2023-01-07T05:10:01.192Z,78.80
2023-01-07T05:15:06.682Z,77.27
2023-01-07T05:20:11.752Z,77.61
2023-01-07T05:25:15.082Z,77.37
2023-01-07T05:30:17.532Z,77.47
2023-01-07T05:35:20.758Z,78.74
2023-01-07T05:40:22.993Z,78.11
2023-01-07T05:45:25.246Z,78.06
2023-01-07T05:50:27.514Z,76.81
2023-01-07T05:55:29.669Z,77.30
2023-01-07T06:00:31.964Z,77.84
2023-01-07T06:05:34.077Z,76.94
2023-01-07T06:10:36.512Z,78.04
2023-01-07T06:15:38.724Z,77.57
2023-01-07T06:20:41.856Z,76.44
2023-01-07T06:25:43.899Z,76.91
2023-01-07T06:30:46.864Z,77.39
2023-01-07T06:35:49.015Z,77.27
2023-01-07T06:40:51.318Z,76.20
2023-01-07T06:45:54.081Z,75.94
2023-01-07T06:50:56.442Z,75.87
2023-01-07T06:55:58.574Z,75.95
2023-01-07T07:01:06.083Z,74.88
2023-01-07T07:06:08.294Z,75.43
2023-01-07T07:11:10.473Z,74.86
2023-01-07T07:16:12.609Z,74.75
2023-01-07T07:21:14.729Z,73.61
2023-01-07T07:26:17.111Z,74.48
2023-01-07T07:31:19.195Z,73.69
2023-01-07T07:36:21.251Z,73.60
2023-01-07T07:41:23.933Z,72.95
2023-01-07T07:46:26.047Z,72.19
2023-01-07T07:51:28.833Z,71.81
2023-01-07T07:56:30.893Z,73.39
2023-01-07T08:01:33.936Z,72.01
2023-01-07T08:06:37.389Z,72.43
2023-01-07T08:11:39.525Z,72.51
2023-01-07T08:16:41.758Z,72.32
2023-01-07T08:21:43.863Z,71.27
2023-01-07T08:26:45.943Z,70.94
2023-01-07T08:31:48.110Z,71.42
2023-01-07T08:36:50.745Z,72.10
2023-01-07T08:41:52.814Z,70.41
2023-01-07T08:46:55.124Z,68.14
2023-01-07T08:51:57.464Z,67.79
2023-01-07T08:56:59.620Z,64.85
2023-01-07T09:02:01.888Z,65.99
2023-01-07T09:07:04.051Z,66.00
2023-01-07T09:12:10.026Z,63.79
2023-01-07T09:17:13.197Z,64.72
2023-01-07T09:22:15.692Z,64.00
2023-01-07T09:27:18.141Z,64.71
2023-01-07T09:32:21.404Z,65.06
2023-01-07T09:37:23.712Z,64.84
2023-01-07T09:42:43.350Z,66.30
2023-01-07T09:47:48.257Z,67.43
2023-01-07T09:52:52.485Z,68.17
2023-01-07T09:57:54.945Z,68.64
2023-01-07T10:03:41.755Z,66.76
2023-01-07T10:08:56.079Z,66.91
2023-01-07T10:14:03.183Z,65.94
2023-01-07T10:19:22.530Z,66.12
2023-01-07T10:24:32.314Z,68.56
2023-01-07T10:29:36.630Z,66.35
2023-01-07T10:34:45.021Z,67.96
2023-01-07T10:40:13.199Z,66.89
2023-01-07T10:45:25.264Z,65.62
2023-01-07T10:50:33.467Z,65.07
2023-01-07T10:55:52.144Z,64.48
2023-01-07T11:00:54.426Z,64.30
2023-01-07T11:06:00.138Z,64.32
2023-01-07T11:11:03.793Z,65.33
2023-01-07T11:16:26.549Z,63.20
2023-01-07T11:21:42.879Z,64.83
2023-01-07T11:26:46.637Z,61.44
2023-01-07T11:31:53.269Z,62.16
2023-01-07T11:36:55.668Z,62.97
2023-01-07T11:42:23.562Z,60.94
2023-01-07T11:47:25.803Z,61.40
2023-01-07T11:52:28.342Z,60.44
2023-01-07T11:57:30.541Z,60.93
2023-01-07T12:02:32.998Z,59.99
2023-01-07T12:07:35.376Z,61.03
2023-01-07T12:12:43.172Z,60.37
2023-01-07T12:17:50.848Z,59.53
2023-01-07T12:23:13.011Z,59.26
2023-01-07T12:28:18.146Z,59.46
2023-01-07T12:33:31.242Z,59.80
2023-01-07T12:38:51.898Z,59.15
2023-01-07T12:44:00.014Z,58.29
2023-01-07T12:49:36.315Z,57.29
2023-01-07T12:55:17.540Z,57.54
2023-01-07T13:00:25.169Z,58.43
2023-01-07T13:05:37.796Z,59.44
2023-01-07T13:10:42.426Z,58.52
2023-01-07T13:15:44.681Z,60.34
2023-01-07T13:21:12.448Z,57.61
2023-01-07T13:26:27.013Z,57.94
2023-01-07T13:31:53.704Z,58.46
2023-01-07T13:37:11.353Z,57.05
2023-01-07T13:42:25.201Z,56.31
2023-01-07T13:47:43.050Z,57.25
2023-01-07T13:52:55.802Z,59.16
2023-01-07T13:57:58.250Z,58.75
2023-01-07T14:03:01.371Z,57.79
2023-01-07T14:08:04.095Z,59.69
2023-01-07T14:13:35.585Z,58.59
2023-01-07T14:19:03.645Z,59.64
2023-01-07T14:24:33.860Z,58.40
2023-01-07T14:29:42.253Z,60.72
2023-01-07T14:34:54.193Z,58.57
2023-01-07T14:39:57.068Z,59.34
2023-01-07T14:45:01.421Z,59.80
2023-01-07T14:50:28.740Z,60.87
2023-01-07T14:55:37.466Z,58.68
2023-01-07T15:01:04.638Z,60.32
2023-01-07T15:06:26.659Z,61.13
2023-01-07T15:11:49.067Z,60.88
2023-01-07T15:16:52.090Z,61.79
2023-01-07T15:21:54.459Z,61.11
2023-01-07T15:27:12.291Z,61.92
2023-01-07T15:32:41.996Z,62.34
2023-01-07T15:38:05.222Z,61.99
2023-01-07T15:43:22.569Z,62.38
2023-01-07T15:48:24.843Z,61.54
2023-01-07T15:53:29.150Z,63.19
2023-01-07T15:58:48.827Z,63.01
2023-01-07T16:03:56.057Z,62.53
2023-01-07T16:08:58.715Z,63.75
2023-01-07T16:14:02.712Z,65.07
2023-01-07T16:19:04.881Z,64.47
2023-01-07T16:24:07.596Z,64.63
2023-01-07T16:29:20.134Z,64.75
2023-01-07T16:34:25.215Z,63.70
2023-01-07T16:39:29.723Z,64.09
2023-01-07T16:44:49.445Z,63.19
2023-01-07T16:50:11.207Z,64.09
2023-01-07T16:55:45.870Z,64.01
2023-01-07T17:00:49.339Z,64.78
2023-01-07T17:06:06.606Z,65.08
2023-01-07T17:11:20.518Z,63.42
2023-01-07T17:16:28.013Z,63.97
2023-01-07T17:21:41.127Z,63.40
2023-01-07T17:26:43.508Z,64.36
2023-01-07T17:31:46.645Z,62.91
2023-01-07T17:36:48.990Z,62.96
2023-01-07T17:42:09.716Z,62.17
2023-01-07T17:47:14.056Z,61.63
2023-01-07T17:52:17.138Z,61.48
2023-01-07T17:57:19.658Z,63.44
2023-01-07T18:02:26.172Z,62.46
2023-01-07T18:07:28.390Z,63.81
2023-01-07T18:12:30.488Z,61.53
2023-01-07T18:17:33.859Z,59.88
2023-01-07T18:22:36.000Z,61.44
2023-01-07T18:27:38.348Z,60.27
2023-01-07T18:32:40.644Z,60.93
2023-01-07T18:37:43.182Z,59.95
2023-01-07T18:42:45.655Z,59.67
2023-01-07T18:47:47.862Z,60.26
2023-01-07T18:52:50.197Z,59.61
2023-01-07T18:57:52.487Z,59.13
2023-01-07T19:02:54.771Z,60.09
2023-01-07T19:07:57.323Z,59.70
2023-01-07T19:12:59.470Z,59.47
2023-01-07T19:18:01.548Z,58.28
2023-01-07T19:23:03.661Z,61.00
2023-01-07T19:28:05.994Z,61.46
2023-01-07T19:33:08.415Z,61.07
2023-01-07T19:38:12.764Z,61.55
2023-01-07T19:43:14.799Z,60.72
2023-01-07T19:48:16.884Z,60.49
2023-01-07T19:53:19.182Z,60.72
2023-01-07T19:58:21.624Z,61.53
2023-01-07T20:03:23.807Z,61.99
2023-01-07T20:08:26.148Z,62.02
2023-01-07T20:13:29.850Z,61.90
2023-01-07T20:18:35.880Z,62.05
2023-01-07T20:23:39.519Z,62.28
2023-01-07T20:28:42.836Z,62.15
2023-01-07T20:33:45.465Z,62.51
2023-01-07T20:38:48.149Z,61.63
2023-01-07T20:44:01.098Z,60.93
2023-01-07T20:49:03.407Z,62.50
2023-01-07T20:54:05.729Z,62.27
2023-01-07T20:59:08.772Z,62.61
2023-01-07T21:04:12.288Z,64.03
2023-01-07T21:09:15.317Z,65.65
2023-01-07T21:14:17.597Z,65.10
2023-01-07T21:19:21.036Z,66.04
2023-01-07T21:24:23.353Z,66.92
2023-01-07T21:29:25.599Z,69.41
2023-01-07T21:34:27.699Z,69.87
2023-01-07T21:39:30.005Z,69.07
2023-01-07T21:44:33.769Z,69.31
2023-01-07T21:49:35.962Z,70.30
2023-01-07T21:54:38.500Z,70.41
2023-01-07T21:59:40.840Z,70.24
2023-01-07T22:04:43.409Z,67.35
2023-01-07T22:09:45.916Z,66.78
2023-01-07T22:14:48.254Z,70.59
2023-01-07T22:19:50.424Z,66.58
2023-01-07T22:24:52.751Z,67.06
2023-01-07T22:29:56.068Z,66.95
2023-01-07T22:34:58.206Z,67.47
2023-01-07T22:40:02.479Z,65.47
2023-01-07T22:45:17.239Z,68.64
2023-01-07T22:50:19.557Z,67.21
2023-01-07T22:55:21.918Z,67.75
2023-01-07T23:00:52.385Z,67.44
2023-01-07T23:05:54.524Z,66.05
2023-01-07T23:10:56.679Z,66.49
2023-01-07T23:16:03.350Z,67.44
2023-01-07T23:21:05.932Z,66.91
2023-01-07T23:26:08.427Z,67.59
2023-01-07T23:31:11.296Z,67.44
2023-01-07T23:36:13.850Z,67.09
2023-01-07T23:41:16.159Z,67.86
2023-01-07T23:46:18.342Z,68.54
2023-01-07T23:51:21.453Z,67.04
2023-01-07T23:56:23.741Z,67.45
